Search for airport 
image banner adimage banner adimage banner ad
image banner ad

77NV - Flying Eagle

Located in Reno, United States

ICAO - 77NV, IATA -

Data provided by Airmate  

General information

Coordinates: N39°50'48" W119°41'12"
Elevation is 4220 feet MSL.
 
View others Airports in Nevada

Operational data

Special qualification required
Current time UTC:
Current local time:
Weather at : KRTS - Reno/Stead ( 26 km )
METAR: KRTS 092135Z AUTO 03005KT 10SM CLR 19/M09 A3001 RMK AO2
View NOTAMs / SUP AIP / TFR affecting this airport [VIEW]
Communications frequencies: [VIEW]

Runways:

RWY identifierQFULength (ft)Width (ft)SurfaceLDA (ft)
07404920ASPH
16456430ASPH
25404920ASPH
34456430ASPH

Airport contact information

Address: Reno United States

Satellite view of 77NV